createdAt,value
2022-09-13T00:04:55.660Z,5.75
2022-09-13T00:11:41.037Z,6.27
2022-09-13T00:18:29.014Z,6.63
2022-09-13T00:25:14.563Z,6.22
2022-09-13T00:32:00.018Z,6.30
2022-09-13T00:38:49.437Z,5.72
2022-09-13T00:45:35.475Z,6.22
2022-09-13T00:59:17.512Z,6.03
2022-09-13T01:06:09.596Z,5.95
2022-09-13T01:13:02.036Z,5.72
2022-09-13T01:19:50.019Z,5.65
2022-09-13T01:27:05.504Z,6.05
2022-09-13T01:34:15.475Z,5.82
2022-09-13T01:41:12.849Z,6.10
2022-09-13T01:48:03.495Z,5.93
2022-09-13T01:55:02.716Z,6.70
2022-09-13T02:01:55.257Z,5.68
2022-09-13T02:08:45.297Z,6.07
2022-09-13T02:15:39.845Z,6.50
2022-09-13T02:22:32.013Z,6.80
2022-09-13T02:29:23.293Z,6.97
2022-09-13T02:36:15.240Z,6.57
2022-09-13T02:43:07.829Z,7.05
2022-09-13T03:03:43.825Z,7.70
2022-09-13T03:10:35.116Z,7.38
2022-09-13T03:17:43.832Z,6.95
2022-09-13T03:24:43.509Z,7.18
2022-09-13T03:31:37.269Z,7.35
2022-09-13T03:38:30.072Z,7.15
2022-09-13T03:45:23.094Z,7.18
2022-09-13T03:52:09.245Z,7.60
2022-09-13T03:58:54.863Z,8.20
2022-09-13T04:05:43.065Z,8.07
2022-09-13T04:12:31.328Z,7.80
2022-09-13T04:19:17.291Z,8.32
2022-09-13T04:26:09.256Z,8.50
2022-09-13T04:32:57.847Z,8.10
2022-09-13T04:39:43.762Z,8.40
2022-09-13T04:46:32.325Z,8.48
2022-09-13T04:53:18.370Z,6.72
2022-09-13T05:00:03.960Z,9.15
2022-09-13T05:06:52.540Z,9.10
2022-09-13T05:13:38.382Z,8.07
2022-09-13T05:20:23.948Z,8.95
2022-09-13T05:27:12.903Z,8.30
2022-09-13T05:34:01.826Z,8.15
2022-09-13T05:40:47.350Z,7.85
2022-09-13T05:47:36.163Z,7.10
2022-09-13T05:54:21.898Z,7.43
2022-09-13T06:01:07.617Z,8.67
2022-09-13T06:07:55.663Z,7.70
2022-09-13T06:14:41.012Z,7.60
2022-09-13T06:21:29.092Z,7.10
2022-09-13T06:28:17.396Z,7.70
2022-09-13T06:35:02.957Z,7.63
2022-09-13T06:41:48.795Z,7.93
2022-09-13T06:48:41.348Z,8.30
2022-09-13T06:55:26.903Z,8.07
2022-09-13T07:02:14.585Z,8.90
2022-09-13T07:09:05.159Z,8.13
2022-09-13T07:15:50.649Z,8.50
2022-09-13T07:22:36.082Z,9.13
2022-09-13T07:29:25.857Z,9.10
2022-09-13T07:36:12.869Z,10.63
2022-09-13T07:42:58.363Z,10.93
2022-09-13T07:49:46.928Z,11.70
2022-09-13T07:56:34.667Z,10.77
2022-09-13T08:03:20.009Z,10.23
2022-09-13T08:10:09.524Z,10.67
2022-09-13T08:16:58.468Z,11.27
2022-09-13T08:23:44.667Z,10.63
2022-09-13T08:37:18.741Z,10.98
2022-09-13T08:44:11.132Z,11.27
2022-09-13T08:51:08.776Z,11.40
2022-09-13T08:58:00.707Z,11.68
2022-09-13T09:04:53.675Z,10.55
2022-09-13T09:11:51.498Z,10.40
2022-09-13T09:18:43.211Z,10.98
2022-09-13T09:25:29.421Z,11.57
2022-09-13T09:32:39.131Z,11.18
2022-09-13T09:39:26.427Z,9.82
2022-09-13T09:46:15.542Z,10.80
2022-09-13T09:53:11.696Z,10.50
2022-09-13T10:00:15.083Z,10.05
2022-09-13T10:07:29.819Z,10.57
2022-09-13T10:14:38.720Z,10.05
2022-09-13T10:21:29.188Z,10.15
2022-09-13T10:28:20.913Z,9.35
2022-09-13T10:35:19.832Z,9.23
2022-09-13T10:42:09.695Z,8.50
2022-09-13T10:48:56.183Z,9.52
2022-09-13T10:55:44.220Z,9.40
2022-09-13T11:02:49.690Z,9.85
2022-09-13T11:09:41.689Z,10.40
2022-09-13T11:16:44.738Z,10.13
2022-09-13T11:24:13.772Z,10.18
2022-09-13T11:31:21.523Z,9.57
2022-09-13T11:38:34.375Z,9.88
2022-09-13T11:45:26.591Z,10.30
2022-09-13T11:52:23.605Z,10.10
2022-09-13T11:59:24.919Z,9.95
2022-09-13T12:06:18.653Z,10.65
2022-09-13T12:13:07.001Z,10.93
2022-09-13T12:19:58.883Z,11.35
2022-09-13T12:26:52.965Z,12.05
2022-09-13T12:33:43.204Z,12.98
2022-09-13T12:41:07.260Z,12.35
2022-09-13T12:48:14.099Z,12.48
2022-09-13T12:55:47.569Z,11.88
2022-09-13T13:02:40.394Z,11.77
2022-09-13T13:09:34.060Z,12.45
2022-09-13T13:16:29.925Z,12.02
2022-09-13T13:30:44.305Z,12.45
2022-09-13T13:37:40.798Z,11.55
2022-09-13T13:45:09.624Z,11.90
2022-09-13T13:52:41.292Z,12.38
2022-09-13T13:59:30.993Z,12.20
2022-09-13T14:06:24.943Z,12.63
2022-09-13T14:13:44.839Z,11.90
2022-09-13T14:20:30.284Z,10.75
2022-09-13T14:27:25.259Z,11.32
2022-09-13T14:34:25.152Z,11.00
2022-09-13T14:41:19.470Z,10.23
2022-09-13T14:48:13.073Z,9.98
2022-09-13T14:55:04.250Z,9.00
2022-09-13T15:01:49.653Z,9.02
2022-09-13T15:08:50.141Z,8.48
2022-09-13T15:15:40.701Z,7.40
2022-09-13T15:22:28.629Z,8.20
2022-09-13T15:29:22.725Z,7.22
2022-09-13T15:36:32.005Z,7.95
2022-09-13T15:43:17.455Z,7.07
2022-09-13T15:50:05.659Z,7.07
2022-09-13T15:56:52.364Z,8.30
2022-09-13T16:03:38.874Z,8.63
2022-09-13T16:10:27.162Z,9.63
2022-09-13T16:17:17.062Z,9.38
2022-09-13T16:24:02.461Z,9.30
2022-09-13T16:30:50.950Z,9.10
2022-09-13T16:37:36.536Z,8.00
2022-09-13T16:51:13.199Z,8.20
2022-09-13T16:57:58.943Z,7.97
2022-09-13T17:04:49.038Z,8.45
2022-09-13T17:11:42.968Z,7.95
2022-09-13T17:18:32.978Z,8.05
2022-09-13T17:25:20.908Z,8.40
2022-09-13T17:32:11.194Z,8.32
2022-09-13T17:39:01.095Z,9.10
2022-09-13T17:45:46.836Z,9.02
2022-09-13T17:52:39.546Z,9.30
2022-09-13T17:59:25.945Z,10.07
2022-09-13T18:06:14.440Z,10.13
2022-09-13T18:13:02.686Z,9.35
2022-09-13T18:19:50.360Z,9.07
2022-09-13T18:26:38.391Z,8.57
2022-09-13T18:33:31.828Z,8.45
2022-09-13T18:40:20.550Z,8.15
2022-09-13T18:47:08.607Z,8.27
2022-09-13T18:53:57.391Z,8.95
2022-09-13T19:00:43.203Z,8.30
2022-09-13T19:07:28.803Z,8.68
2022-09-13T19:21:07.426Z,8.35
2022-09-13T19:27:52.782Z,8.50
2022-09-13T19:34:40.756Z,7.97
2022-09-13T19:41:29.705Z,7.85
2022-09-13T19:55:23.883Z,8.27
2022-09-13T20:02:10.794Z,8.38
2022-09-13T20:09:00.268Z,9.05
2022-09-13T20:15:49.092Z,7.55
2022-09-13T20:22:34.506Z,8.07
2022-09-13T20:29:20.774Z,8.60
2022-09-13T20:36:13.296Z,8.98
2022-09-13T20:42:59.037Z,8.73
2022-09-13T20:56:34.919Z,8.40
2022-09-13T21:03:20.546Z,8.98
2022-09-13T21:10:06.992Z,8.80
2022-09-13T21:16:56.837Z,8.50
2022-09-13T21:23:42.347Z,7.45
2022-09-13T21:30:27.895Z,8.40
2022-09-13T21:37:16.188Z,7.50
2022-09-13T21:44:01.709Z,8.13
2022-09-13T21:50:47.159Z,8.13
2022-09-13T21:57:35.237Z,7.55
2022-09-13T22:04:24.242Z,7.57
2022-09-13T22:11:12.636Z,7.55
2022-09-13T22:18:00.605Z,7.65
2022-09-13T22:24:46.538Z,7.88
2022-09-13T22:31:34.887Z,7.40
2022-09-13T22:38:22.937Z,7.10
2022-09-13T22:45:10.611Z,7.28
2022-09-13T22:51:56.026Z,6.95
2022-09-13T22:58:44.829Z,7.05
2022-09-13T23:05:30.229Z,7.40
2022-09-13T23:12:16.187Z,7.47
2022-09-13T23:19:04.479Z,7.03
2022-09-13T23:25:49.840Z,6.65
2022-09-13T23:32:35.166Z,6.53
2022-09-13T23:39:23.836Z,6.78
2022-09-13T23:46:09.986Z,6.55
2022-09-13T23:52:55.802Z,6.40
